Time;durP1;ratioP1;P1;durP2;ratioP2;P2;SDS_P1;SDS_P2;PMS_P1;PMS_P2;Temp;Humidity;BMP_temperature;BMP_pressure;BME280_temperature;BME280_humidity;BME280_pressure;Samples;Min_cycle;Max_cycle;Signal;HPM_P1;HPM_P2
2022/03/21 00:01:05;;;;;;;72.00;46.30;;;4.60;99.90;;;;;;5054224;28;20029;-75
2022/03/21 00:03:31;;;;;;;72.88;44.72;;;4.70;99.90;;;;;;5053850;28;20091;-77
2022/03/21 00:05:58;;;;;;;86.28;45.47;;;4.80;99.90;;;;;;5054572;28;20048;-79
2022/03/21 00:08:24;;;;;;;75.05;47.95;;;4.80;99.90;;;;;;5054058;28;20568;-78
2022/03/21 00:10:52;;;;;;;79.05;48.78;;;4.80;99.90;;;;;;5053000;28;20096;-79
2022/03/21 00:13:18;;;;;;;76.00;47.92;;;4.90;99.90;;;;;;5052704;28;20476;-78
2022/03/21 00:15:46;;;;;;;68.43;45.75;;;5.00;99.90;;;;;;5053543;28;20028;-77
2022/03/21 00:18:15;;;;;;;72.50;48.30;;;4.90;99.90;;;;;;5053489;28;20054;-77
2022/03/21 00:20:43;;;;;;;75.15;48.17;;;4.90;99.90;;;;;;5054020;28;20029;-75
2022/03/21 00:23:09;;;;;;;74.15;47.03;;;5.00;99.90;;;;;;5052377;28;20505;-79
2022/03/21 00:25:35;;;;;;;73.93;48.22;;;5.00;99.90;;;;;;5054097;28;20120;-77
2022/03/21 00:28:02;;;;;;;74.22;47.47;;;4.90;99.90;;;;;;5052380;28;20033;-78
2022/03/21 00:30:29;;;;;;;77.18;48.08;;;5.10;99.90;;;;;;5052712;28;20079;-78
2022/03/21 00:32:56;;;;;;;73.00;47.13;;;5.10;99.90;;;;;;5035534;28;20036;-77
2022/03/21 00:35:22;;;;;;;74.22;46.72;;;5.00;99.90;;;;;;5053668;28;20104;-77
2022/03/21 00:37:49;;;;;;;76.72;48.15;;;5.00;99.90;;;;;;5053654;28;20052;-74
2022/03/21 00:40:16;;;;;;;70.28;45.40;;;5.00;99.90;;;;;;5053534;28;20362;-74
2022/03/21 00:42:44;;;;;;;77.82;46.78;;;4.90;99.90;;;;;;5053641;28;20053;-82
2022/03/21 00:45:13;;;;;;;70.93;46.28;;;4.80;99.90;;;;;;5053260;28;20025;-82
2022/03/21 00:47:39;;;;;;;75.00;47.28;;;4.80;99.90;;;;;;5053151;28;20025;-82
2022/03/21 00:50:07;;;;;;;72.00;44.20;;;4.80;99.90;;;;;;5053377;28;20037;-80
2022/03/21 00:52:41;;;;;;;68.57;45.00;;;4.40;99.90;;;;;;5052198;28;20029;-78
2022/03/21 00:55:09;;;;;;;74.10;44.53;;;4.20;99.90;;;;;;5053428;28;20496;-79
2022/03/21 00:57:35;;;;;;;80.30;46.60;;;4.30;99.90;;;;;;5053475;28;20033;-75
2022/03/21 01:00:04;;;;;;;75.80;48.53;;;4.00;99.90;;;;;;5051945;28;20039;-79
2022/03/21 01:02:30;;;;;;;71.93;47.05;;;4.30;99.90;;;;;;5052831;28;20499;-79
2022/03/21 01:04:56;;;;;;;75.93;48.78;;;4.30;99.90;;;;;;5053022;28;20136;-74
2022/03/21 01:07:21;;;;;;;74.10;47.33;;;4.30;99.90;;;;;;5053197;28;20078;-77
2022/03/21 01:09:47;;;;;;;74.93;47.97;;;4.30;99.90;;;;;;5053131;28;20033;-73
2022/03/21 01:12:14;;;;;;;80.78;50.72;;;4.30;99.90;;;;;;5051820;28;20041;-73
2022/03/21 01:14:41;;;;;;;80.15;50.10;;;4.30;99.90;;;;;;5053081;28;20040;-73
2022/03/21 01:17:07;;;;;;;72.95;49.10;;;4.10;99.90;;;;;;5052663;28;20086;-72
2022/03/21 01:19:32;;;;;;;78.40;48.85;;;4.10;99.90;;;;;;5053090;28;20037;-76
2022/03/21 01:21:58;;;;;;;73.00;48.05;;;4.20;99.90;;;;;;5053090;28;20025;-76
2022/03/21 01:24:25;;;;;;;78.82;49.30;;;4.20;99.90;;;;;;5051237;28;20037;-79
2022/03/21 01:26:51;;;;;;;73.25;48.20;;;4.20;99.90;;;;;;5052764;28;20048;-75
2022/03/21 01:29:17;;;;;;;76.45;49.13;;;4.20;99.90;;;;;;5050718;28;20037;-74
2022/03/21 01:31:43;;;;;;;77.53;50.28;;;4.20;99.90;;;;;;5052728;28;20037;-81
2022/03/21 01:34:09;;;;;;;76.32;50.03;;;4.20;99.90;;;;;;5052807;28;20035;-82
2022/03/21 01:36:34;;;;;;;77.32;49.33;;;4.20;99.90;;;;;;5052839;28;20473;-83
2022/03/21 01:39:00;;;;;;;77.82;49.38;;;4.20;99.90;;;;;;5052773;28;20013;-83
2022/03/21 01:41:26;;;;;;;77.72;50.35;;;4.30;99.90;;;;;;5052658;28;20032;-80
2022/03/21 01:44:03;;;;;;;75.13;50.25;;;4.30;99.90;;;;;;5053083;28;20025;-82
2022/03/21 01:46:30;;;;;;;82.65;50.47;;;4.10;99.90;;;;;;5052211;28;20060;-82
2022/03/21 01:48:56;;;;;;;76.68;48.78;;;4.20;99.90;;;;;;5051251;28;20037;-82
2022/03/21 01:51:23;;;;;;;78.68;49.28;;;4.20;99.90;;;;;;5051294;28;20021;-82
2022/03/21 01:56:36;;;;;;;78.45;53.13;;;4.20;99.90;;;;;;5052675;28;20029;-82
2022/03/21 01:59:04;;;;;;;80.47;52.63;;;4.10;99.90;;;;;;5052600;28;20037;-83
2022/03/21 02:01:29;;;;;;;81.65;52.55;;;4.00;99.90;;;;;;5050641;28;20043;-82
2022/03/21 02:03:55;;;;;;;87.22;53.63;;;4.00;99.90;;;;;;5032639;28;20025;-82
2022/03/21 02:06:21;;;;;;;81.45;53.28;;;4.00;99.90;;;;;;5031106;28;20029;-83
2022/03/21 02:08:48;;;;;;;89.93;56.33;;;3.90;99.90;;;;;;5032034;28;20091;-82
2022/03/21 02:11:15;;;;;;;86.97;52.67;;;3.90;99.90;;;;;;5032305;28;20105;-83
2022/03/21 02:13:41;;;;;;;92.40;53.35;;;4.00;99.90;;;;;;5032604;28;20025;-83
2022/03/21 02:16:08;;;;;;;83.70;54.63;;;4.10;99.90;;;;;;5031010;28;20024;-83
2022/03/21 02:18:39;;;;;;;80.00;51.30;;;4.10;99.90;;;;;;5032930;28;20053;-83
2022/03/21 02:21:09;;;;;;;83.65;53.25;;;4.00;99.90;;;;;;5032408;28;20021;-83
2022/03/21 02:24:02;;;;;;;76.13;51.55;;;4.10;99.90;;;;;;5031237;28;20051;-83
2022/03/21 02:26:28;;;;;;;;;;;4.10;99.90;;;;;;5032520;28;20060;-76
2022/03/21 02:28:57;;;;;;;79.20;50.53;;;3.90;99.90;;;;;;5032520;28;19917;-83
2022/03/21 02:31:24;;;;;;;81.80;51.63;;;3.90;99.90;;;;;;5032245;28;20473;-84
2022/03/21 02:33:52;;;;;;;81.57;52.88;;;4.00;99.90;;;;;;5032428;28;20033;-84
2022/03/21 02:36:20;;;;;;;87.82;53.00;;;3.80;99.90;;;;;;5036093;28;20481;-83
2022/03/21 02:38:47;;;;;;;84.22;51.63;;;3.80;99.90;;;;;;5072388;28;20047;-84
2022/03/21 02:41:16;;;;;;;88.47;54.53;;;3.80;99.90;;;;;;5075955;28;20032;-78
2022/03/21 02:44:08;;;;;;;84.55;51.55;;;3.60;99.90;;;;;;5075759;28;20064;-84
2022/03/21 02:46:36;;;;;;;76.65;50.75;;;3.70;99.90;;;;;;5070580;28;20098;-83
2022/03/21 02:49:02;;;;;;;81.00;52.10;;;3.70;99.90;;;;;;5055855;28;20117;-84
2022/03/21 02:51:30;;;;;;;84.80;53.65;;;3.70;99.90;;;;;;5054272;28;20453;-82
2022/03/21 02:53:55;;;;;;;79.68;51.80;;;3.60;99.90;;;;;;5054335;28;20476;-83
2022/03/21 02:56:21;;;;;;;80.35;53.08;;;3.60;99.90;;;;;;5055487;28;20062;-84
2022/03/21 02:58:48;;;;;;;85.50;54.40;;;3.50;99.90;;;;;;5055460;28;20151;-83
2022/03/21 03:01:16;;;;;;;77.93;51.63;;;3.60;99.90;;;;;;5055434;28;20021;-84
2022/03/21 03:03:43;;;;;;;82.50;53.50;;;3.60;99.90;;;;;;5055481;28;20029;-85
2022/03/21 03:06:09;;;;;;;84.28;53.33;;;3.60;99.90;;;;;;5055393;28;20057;-84
2022/03/21 03:08:36;;;;;;;86.70;54.72;;;3.70;99.90;;;;;;5055427;28;20047;-84
2022/03/21 03:11:02;;;;;;;87.47;53.92;;;3.70;99.90;;;;;;5055334;28;20486;-85
2022/03/21 03:13:28;;;;;;;84.07;53.38;;;3.70;99.90;;;;;;5054831;28;20039;-84
2022/03/21 03:15:57;;;;;;;87.32;54.75;;;3.70;99.90;;;;;;5055412;28;20028;-84
2022/03/21 03:18:22;;;;;;;84.45;53.92;;;3.70;99.90;;;;;;5055170;28;20029;-85
2022/03/21 03:20:54;;;;;;;86.00;55.83;;;3.70;99.90;;;;;;5055389;28;20025;-84
2022/03/21 03:23:21;;;;;;;90.80;55.30;;;3.80;99.90;;;;;;5054983;28;20043;-83
2022/03/21 03:25:55;;;;;;;88.47;55.15;;;3.50;99.90;;;;;;5054906;28;20283;-84
2022/03/21 03:28:21;;;;;;;80.28;52.03;;;3.30;99.90;;;;;;5054462;28;20075;-83
2022/03/21 03:30:47;;;;;;;89.03;53.55;;;3.10;99.90;;;;;;5055218;28;20423;-82
2022/03/21 03:33:13;;;;;;;94.68;55.85;;;3.20;99.90;;;;;;5037018;28;20028;-84
2022/03/21 03:35:40;;;;;;;91.28;55.55;;;3.30;99.90;;;;;;5054910;28;20040;-83
2022/03/21 03:38:05;;;;;;;88.97;54.50;;;3.30;99.90;;;;;;5054490;28;20025;-84
2022/03/21 03:40:31;;;;;;;84.43;54.38;;;3.40;99.90;;;;;;5054751;28;20161;-84
2022/03/21 03:42:57;;;;;;;91.43;57.22;;;3.30;99.90;;;;;;5054527;28;20067;-83
2022/03/21 03:45:23;;;;;;;88.10;54.55;;;3.30;99.90;;;;;;5054727;28;20036;-84
2022/03/21 03:47:49;;;;;;;89.18;56.28;;;3.40;99.90;;;;;;5053216;28;20036;-83
2022/03/21 03:50:14;;;;;;;88.57;55.90;;;3.40;99.90;;;;;;5054363;28;20040;-83
2022/03/21 03:52:46;;;;;;;92.28;56.42;;;3.40;99.90;;;;;;5053762;28;20366;-83
2022/03/21 03:55:13;;;;;;;95.78;55.55;;;3.50;99.90;;;;;;5053494;28;20028;-84
2022/03/21 03:57:39;;;;;;;83.50;55.47;;;3.60;99.90;;;;;;5054225;28;20700;-84
2022/03/21 04:00:07;;;;;;;83.07;54.17;;;3.40;99.90;;;;;;5054649;28;20083;-84
2022/03/21 04:05:23;;;;;;;89.45;54.95;;;3.40;99.90;;;;;;5034448;28;20069;-83
2022/03/21 04:07:52;;;;;;;91.55;55.45;;;2.90;99.90;;;;;;5033265;28;20123;-78
2022/03/21 04:10:20;;;;;;;88.18;54.20;;;2.70;99.90;;;;;;5034233;28;20673;-79
2022/03/21 04:12:48;;;;;;;84.15;54.33;;;2.60;99.90;;;;;;5034309;28;20044;-80
2022/03/21 04:15:14;;;;;;;84.78;53.50;;;2.60;99.90;;;;;;5034479;28;20030;-82
2022/03/21 04:17:40;;;;;;;95.72;56.58;;;2.80;99.90;;;;;;5034103;28;20100;-84
2022/03/21 04:20:07;;;;;;;86.72;54.90;;;2.80;99.90;;;;;;5034509;28;20105;-84
2022/03/21 04:22:36;;;;;;;89.65;54.28;;;2.80;99.90;;;;;;5034340;28;20033;-80
2022/03/21 04:25:07;;;;;;;93.97;55.92;;;2.90;99.90;;;;;;5032588;28;20478;-83
2022/03/21 04:27:33;;;;;;;87.85;51.95;;;2.60;99.90;;;;;;5034093;28;20092;-84
2022/03/21 04:30:00;;;;;;;90.30;54.47;;;2.60;99.90;;;;;;5033012;28;20486;-84
2022/03/21 04:32:26;;;;;;;89.43;54.15;;;2.70;99.90;;;;;;5033779;28;20030;-84
2022/03/21 04:34:52;;;;;;;84.88;55.25;;;2.50;99.90;;;;;;5033885;28;20383;-84
2022/03/21 04:37:19;;;;;;;88.97;54.58;;;2.60;99.90;;;;;;5034015;28;20064;-84
2022/03/21 04:39:44;;;;;;;89.45;55.47;;;2.70;99.90;;;;;;5032196;28;20048;-84
2022/03/21 04:42:10;;;;;;;88.25;54.28;;;2.80;99.90;;;;;;5032313;28;20459;-84
2022/03/21 04:44:36;;;;;;;88.85;55.13;;;2.90;99.90;;;;;;5033684;28;20420;-84
2022/03/21 04:47:02;;;;;;;97.22;56.80;;;2.70;99.90;;;;;;5041242;28;20025;-83
2022/03/21 04:49:28;;;;;;;101.55;56.22;;;2.90;99.90;;;;;;5053320;28;20033;-84
2022/03/21 04:51:54;;;;;;;93.18;55.53;;;2.90;99.90;;;;;;5053344;28;20431;-84
2022/03/21 04:54:19;;;;;;;99.18;56.03;;;2.90;99.90;;;;;;5053240;28;20029;-84
2022/03/21 04:56:45;;;;;;;99.40;57.90;;;3.00;99.90;;;;;;5053377;28;20115;-84
2022/03/21 04:59:11;;;;;;;93.68;55.97;;;2.80;99.90;;;;;;5053277;28;20389;-84
2022/03/21 05:01:37;;;;;;;87.75;56.63;;;2.60;99.90;;;;;;5050451;28;20175;-84
2022/03/21 05:04:03;;;;;;;88.30;54.83;;;2.30;99.90;;;;;;5033444;28;20041;-82
2022/03/21 05:06:29;;;;;;;91.53;54.78;;;2.30;99.90;;;;;;5033455;28;20025;-83
2022/03/21 05:08:54;;;;;;;97.55;58.33;;;2.20;99.90;;;;;;5032825;28;20046;-80
2022/03/21 05:11:20;;;;;;;94.85;57.22;;;2.30;99.90;;;;;;5033201;28;20112;-75
2022/03/21 05:13:46;;;;;;;97.07;57.17;;;2.30;99.90;;;;;;5031807;28;20063;-78
2022/03/21 05:16:12;;;;;;;97.53;57.63;;;2.30;99.90;;;;;;5033274;28;20033;-79
2022/03/21 05:18:38;;;;;;;101.18;59.15;;;2.30;99.90;;;;;;5015440;28;20049;-75
2022/03/21 05:21:05;;;;;;;103.20;58.55;;;2.40;99.90;;;;;;5032870;28;20021;-79
2022/03/21 05:31:47;;;;;;;98.40;58.65;;;2.50;99.90;;;;;;5032982;28;20021;-72
2022/03/21 05:36:57;;;;;;;93.18;57.30;;;2.60;99.90;;;;;;5032766;28;20030;-77
2022/03/21 05:39:23;;;;;;;93.47;56.80;;;2.60;99.90;;;;;;5031385;28;20028;-77
2022/03/21 05:41:53;;;;;;;105.18;59.75;;;2.70;99.90;;;;;;5031621;28;20481;-84
2022/03/21 05:44:19;;;;;;;93.50;57.45;;;2.80;99.90;;;;;;5032785;28;20113;-79
2022/03/21 05:46:45;;;;;;;103.47;58.15;;;2.90;99.90;;;;;;5038017;28;20102;-81
2022/03/21 05:49:11;;;;;;;107.53;59.85;;;2.90;99.90;;;;;;5051713;28;20037;-83
2022/03/21 05:51:40;;;;;;;108.03;59.15;;;3.00;99.90;;;;;;5052328;28;20519;-76
2022/03/21 05:54:13;;;;;;;99.28;58.08;;;3.00;99.90;;;;;;5051435;28;20116;-78
2022/03/21 05:56:41;;;;;;;113.20;58.60;;;2.90;99.90;;;;;;5052293;28;20031;-83
2022/03/21 06:01:53;;;;;;;108.00;59.95;;;2.90;99.90;;;;;;5049025;28;20056;-83
2022/03/21 06:04:20;;;;;;;106.97;59.70;;;3.10;99.90;;;;;;5031363;28;20041;-84
2022/03/21 06:06:46;;;;;;;105.28;57.25;;;3.00;99.90;;;;;;5032191;28;20026;-75
2022/03/21 06:09:12;;;;;;;100.10;57.15;;;2.90;99.90;;;;;;5032536;28;20428;-75
2022/03/21 06:11:39;;;;;;;100.65;56.00;;;2.90;99.90;;;;;;5032491;28;20025;-78
2022/03/21 06:14:05;;;;;;;101.85;60.05;;;3.00;99.90;;;;;;5033258;28;20029;-81
2022/03/21 06:16:32;;;;;;;102.22;58.92;;;3.00;99.90;;;;;;5036164;28;20025;-72
2022/03/21 06:19:00;;;;;;;101.78;57.92;;;3.00;99.90;;;;;;5036546;28;20025;-76
2022/03/21 06:21:28;;;;;;;102.72;60.17;;;3.10;99.90;;;;;;5018277;28;20378;-80
2022/03/21 06:23:53;;;;;;;93.13;57.58;;;3.10;99.90;;;;;;5036407;28;20056;-73
2022/03/21 06:26:19;;;;;;;101.85;58.33;;;3.10;99.90;;;;;;5036092;28;20033;-81
2022/03/21 06:28:45;;;;;;;107.70;58.60;;;3.10;99.90;;;;;;5036293;28;20600;-84
2022/03/21 06:31:11;;;;;;;106.05;58.15;;;3.30;99.90;;;;;;5035896;28;20026;-82
2022/03/21 06:33:37;;;;;;;99.28;57.97;;;3.30;99.90;;;;;;5036098;28;20389;-83
2022/03/21 06:36:03;;;;;;;96.18;55.75;;;3.30;99.90;;;;;;5035767;28;20018;-82
2022/03/21 06:38:30;;;;;;;105.25;58.67;;;3.30;99.90;;;;;;5035816;28;20026;-81
2022/03/21 06:40:57;;;;;;;106.70;59.33;;;3.40;99.90;;;;;;5035767;28;20033;-81
2022/03/21 06:43:23;;;;;;;107.72;54.10;;;3.50;99.90;;;;;;5036012;28;20037;-82
2022/03/21 06:45:51;;;;;;;107.60;57.83;;;3.30;99.90;;;;;;5034494;28;20025;-83
2022/03/21 06:48:18;;;;;;;97.82;57.05;;;3.40;99.90;;;;;;5053646;28;20400;-81
2022/03/21 06:50:46;;;;;;;102.82;56.13;;;3.60;99.90;;;;;;5054092;28;20021;-81
2022/03/21 06:53:13;;;;;;;94.05;56.45;;;3.80;99.90;;;;;;5055524;28;20021;-80
2022/03/21 06:55:40;;;;;;;93.13;54.83;;;3.90;99.90;;;;;;5056283;28;20025;-88
2022/03/21 06:58:09;;;;;;;93.35;54.75;;;3.60;99.90;;;;;;5055795;28;20037;-81
2022/03/21 07:00:34;;;;;;;93.85;56.60;;;3.80;99.90;;;;;;5037717;28;20063;-76
2022/03/21 07:03:00;;;;;;;102.78;56.05;;;4.00;99.90;;;;;;5042770;28;20124;-78
2022/03/21 07:05:28;;;;;;;99.22;57.00;;;4.30;99.90;;;;;;5035184;28;20029;-79
2022/03/21 07:07:55;;;;;;;92.00;55.78;;;4.70;99.90;;;;;;5035827;28;20025;-77
2022/03/21 07:10:20;;;;;;;92.18;55.95;;;4.90;99.90;;;;;;5054906;28;20045;-78
2022/03/21 07:12:46;;;;;;;87.10;52.92;;;4.90;99.90;;;;;;5075127;28;20066;-76
2022/03/21 07:15:12;;;;;;;85.57;52.00;;;4.60;99.90;;;;;;5061003;28;20029;-82
2022/03/21 07:17:41;;;;;;;87.32;53.72;;;4.70;99.90;;;;;;5046307;28;20065;-87
2022/03/21 07:20:11;;;;;;;89.00;53.28;;;5.00;99.90;;;;;;5034656;28;20116;-86
2022/03/21 07:22:37;;;;;;;82.45;50.25;;;5.20;99.90;;;;;;5035075;28;20021;-82
2022/03/21 07:25:03;;;;;;;84.32;51.70;;;5.50;99.90;;;;;;5034670;28;20034;-79
2022/03/21 07:27:28;;;;;;;88.22;54.08;;;5.70;99.90;;;;;;5034268;28;20033;-80
2022/03/21 07:29:54;;;;;;;84.75;54.25;;;5.60;99.90;;;;;;5034625;28;20480;-79
2022/03/21 07:32:20;;;;;;;90.00;53.35;;;5.50;99.90;;;;;;5034391;28;20022;-79
2022/03/21 07:34:45;;;;;;;78.20;49.55;;;5.80;99.90;;;;;;5033195;28;20445;-80
2022/03/21 07:37:11;;;;;;;79.47;49.53;;;5.80;99.90;;;;;;5034276;28;20456;-77
2022/03/21 07:39:39;;;;;;;74.90;47.55;;;5.90;99.90;;;;;;5034347;28;20032;-76
2022/03/21 07:42:07;;;;;;;76.43;47.28;;;5.90;99.90;;;;;;5032880;28;20025;-80
2022/03/21 07:47:20;;;;;;;74.55;45.10;;;6.30;99.90;;;;;;5053979;28;20037;-76
2022/03/21 07:49:50;;;;;;;105.50;45.50;;;6.30;99.90;;;;;;5052633;28;20063;-78
2022/03/21 07:52:18;;;;;;;68.90;41.72;;;6.60;99.90;;;;;;5053957;28;20029;-79
2022/03/21 07:54:45;;;;;;;102.97;40.50;;;6.80;99.90;;;;;;5052693;28;20090;-79
2022/03/21 07:57:11;;;;;;;152.20;44.35;;;7.00;99.90;;;;;;5054044;28;20066;-79
2022/03/21 07:59:37;;;;;;;61.13;34.80;;;7.10;99.90;;;;;;5054246;28;20069;-81
2022/03/21 08:02:05;;;;;;;97.07;37.47;;;7.30;99.90;;;;;;5048851;28;20049;-75
2022/03/21 08:04:31;;;;;;;51.10;32.83;;;7.30;99.90;;;;;;5032818;28;20037;-77
2022/03/21 08:06:59;;;;;;;54.03;33.55;;;7.40;99.90;;;;;;5033791;28;20032;-84
2022/03/21 08:09:27;;;;;;;58.92;35.30;;;7.60;99.90;;;;;;5032693;28;20041;-83
2022/03/21 08:11:54;;;;;;;63.28;34.40;;;7.70;99.90;;;;;;5051243;28;20017;-78
2022/03/21 08:14:21;;;;;;;54.40;32.28;;;7.90;99.90;;;;;;5051944;28;20515;-78
2022/03/21 08:16:46;;;;;;;61.70;33.28;;;8.00;99.90;;;;;;5052819;28;20043;-77
2022/03/21 08:19:13;;;;;;;56.03;32.28;;;8.40;99.90;;;;;;5053641;28;20025;-77
2022/03/21 08:21:39;;;;;;;46.67;30.73;;;8.50;99.90;;;;;;5053376;28;20036;-76
2022/03/21 08:24:06;;;;;;;74.22;32.53;;;8.70;99.90;;;;;;5053346;28;20481;-84
2022/03/21 08:26:35;;;;;;;52.67;28.70;;;9.00;99.90;;;;;;5053313;28;20068;-84
2022/03/21 08:29:01;;;;;;;61.40;30.27;;;9.40;99.90;;;;;;5053380;28;20032;-87
2022/03/21 08:31:28;;;;;;;55.17;27.85;;;9.60;99.90;;;;;;5051836;28;20029;-80
2022/03/21 08:33:53;;;;;;;46.53;26.00;;;9.80;99.90;;;;;;5053034;28;20033;-80
2022/03/21 08:36:19;;;;;;;37.78;23.75;;;10.10;99.90;;;;;;5052436;28;20029;-87
2022/03/21 08:38:47;;;;;;;49.42;24.40;;;10.10;99.90;;;;;;5052838;28;20069;-82
2022/03/21 08:41:13;;;;;;;59.45;24.30;;;9.90;99.90;;;;;;5053467;28;20470;-82
2022/03/21 08:43:39;;;;;;;33.80;21.70;;;10.40;99.90;;;;;;5053090;28;20036;-80
2022/03/21 08:46:05;;;;;;;41.08;23.13;;;10.60;99.90;;;;;;5033852;28;20021;-80
2022/03/21 08:51:15;;;;;;;34.10;21.80;;;10.60;99.90;;;;;;5053049;28;20120;-88
2022/03/21 08:53:41;;;;;;;43.17;22.63;;;10.80;99.90;;;;;;5052953;28;20155;-88
2022/03/21 08:56:06;;;;;;;53.58;24.25;;;11.00;99.90;;;;;;5053561;28;20029;-87
2022/03/21 08:58:33;;;;;;;41.35;23.42;;;11.30;99.90;;;;;;5053173;28;20037;-89
2022/03/21 09:00:58;;;;;;;55.60;21.83;;;11.60;99.90;;;;;;5051124;28;20025;-85
2022/03/21 09:03:24;;;;;;;38.40;22.40;;;12.00;99.90;;;;;;5036335;28;20504;-89
2022/03/21 09:05:50;;;;;;;58.75;22.45;;;11.80;98.80;;;;;;5031886;28;20030;-85
2022/03/21 09:08:17;;;;;;;50.13;23.40;;;11.50;99.90;;;;;;5035591;28;20033;-87
2022/03/21 09:10:43;;;;;;;40.17;20.42;;;11.90;99.90;;;;;;5042153;28;20029;-87
2022/03/21 09:13:09;;;;;;;44.58;21.67;;;12.30;99.90;;;;;;5036871;28;20087;-85
2022/03/21 09:15:34;;;;;;;38.97;21.80;;;12.00;98.10;;;;;;5039932;28;20432;-84
2022/03/21 09:18:02;;;;;;;49.38;21.73;;;12.20;98.60;;;;;;5035856;28;20025;-83
2022/03/21 09:20:29;;;;;;;40.22;20.95;;;12.40;99.90;;;;;;5016260;28;20033;-83
2022/03/21 09:22:54;;;;;;;35.42;20.77;;;12.50;98.40;;;;;;5034167;28;20362;-82
2022/03/21 09:25:20;;;;;;;40.55;21.08;;;12.90;98.90;;;;;;5030528;28;20094;-82
2022/03/21 09:27:46;;;;;;;35.15;20.77;;;12.90;98.30;;;;;;5042588;28;20123;-79
2022/03/21 09:30:12;;;;;;;32.13;21.58;;;13.00;97.40;;;;;;5039307;28;20033;-83
2022/03/21 09:32:38;;;;;;;42.50;21.83;;;13.00;97.60;;;;;;5041486;28;20036;-82
2022/03/21 09:35:05;;;;;;;36.97;21.20;;;13.00;97.40;;;;;;5052568;28;20048;-78
2022/03/21 09:37:34;;;;;;;40.47;20.30;;;13.10;97.90;;;;;;5052622;28;20032;-82
2022/03/21 09:40:00;;;;;;;35.22;20.33;;;13.50;96.80;;;;;;5052375;28;20083;-82
2022/03/21 09:42:27;;;;;;;39.90;19.15;;;13.20;97.00;;;;;;5052891;28;20036;-83
2022/03/21 09:44:53;;;;;;;37.67;20.88;;;13.20;96.80;;;;;;5049960;28;20025;-83
2022/03/21 09:50:12;;;;;;;44.28;17.95;;;13.50;97.40;;;;;;5055241;28;20037;-79
2022/03/21 09:52:39;;;;;;;29.77;18.35;;;13.50;96.70;;;;;;5055756;28;20067;-79
2022/03/21 09:55:07;;;;;;;34.67;17.67;;;13.70;97.30;;;;;;5053921;28;20035;-79
2022/03/21 09:57:36;;;;;;;31.58;17.35;;;13.80;96.30;;;;;;5036785;28;20041;-76
2022/03/21 10:00:07;;;;;;;30.08;18.33;;;13.70;96.40;;;;;;5018575;28;20029;-82
2022/03/21 10:02:38;;;;;;;33.45;18.48;;;13.70;95.90;;;;;;5043374;28;20489;-81
2022/03/21 10:05:04;;;;;;;31.00;18.23;;;13.70;96.30;;;;;;5056087;28;20033;-79
2022/03/21 10:07:29;;;;;;;36.15;18.58;;;13.90;96.50;;;;;;5056246;28;20053;-77
2022/03/21 10:10:12;;;;;;;33.83;17.63;;;13.90;96.30;;;;;;5055148;28;20393;-75
2022/03/21 10:12:39;;;;;;;26.35;16.65;;;14.30;96.60;;;;;;5048613;28;20370;-77
2022/03/21 10:15:09;;;;;;;32.50;17.98;;;14.40;95.30;;;;;;5055541;28;20128;-78
2022/03/21 10:17:35;;;;;;;30.85;17.98;;;14.50;96.00;;;;;;5056379;28;20107;-81
2022/03/21 10:20:02;;;;;;;36.58;19.52;;;14.20;96.00;;;;;;5040933;28;20021;-83
2022/03/21 10:22:37;;;;;;;29.38;17.45;;;14.20;95.80;;;;;;5036024;28;20436;-81
2022/03/21 10:25:04;;;;;;;23.95;15.85;;;14.40;95.90;;;;;;5036896;28;20504;-83
2022/03/21 10:27:37;;;;;;;27.83;18.02;;;14.50;95.50;;;;;;5055885;28;20029;-82
2022/03/21 10:30:09;;;;;;;30.92;17.05;;;14.40;96.00;;;;;;5058970;28;20024;-83
2022/03/21 10:32:50;;;;;;;30.13;18.10;;;14.70;95.30;;;;;;5056483;28;20021;-82
2022/03/21 10:35:23;;;;;;;30.30;18.02;;;14.70;95.10;;;;;;5055943;28;20067;-80
2022/03/21 10:38:07;;;;;;;30.55;18.42;;;14.80;95.30;;;;;;5055742;28;20076;-84
2022/03/21 10:40:44;;;;;;;33.17;17.17;;;14.80;95.50;;;;;;5055735;28;20484;-81
2022/03/21 10:43:15;;;;;;;33.40;19.42;;;15.40;95.60;;;;;;5055273;28;20037;-82
2022/03/21 10:45:49;;;;;;;32.85;18.67;;;15.90;94.70;;;;;;5056037;28;20078;-79
2022/03/21 10:48:32;;;;;;;35.45;18.45;;;15.80;95.10;;;;;;5055307;28;20044;-78
2022/03/21 10:51:00;;;;;;;28.58;18.42;;;15.80;95.00;;;;;;5052339;28;20393;-82
2022/03/21 10:53:27;;;;;;;30.38;18.15;;;15.60;95.10;;;;;;5053787;28;20067;-77
2022/03/21 10:56:09;;;;;;;35.60;18.67;;;16.00;94.90;;;;;;5055198;28;20032;-81
2022/03/21 10:58:41;;;;;;;32.67;18.52;;;16.30;94.50;;;;;;5055753;28;20318;-78
2022/03/21 11:01:18;;;;;;;36.58;19.52;;;16.30;94.20;;;;;;5053521;28;20029;-80
2022/03/21 11:03:49;;;;;;;30.80;18.20;;;16.40;94.20;;;;;;5036844;28;20033;-74
2022/03/21 11:06:15;;;;;;;31.92;18.48;;;16.40;94.70;;;;;;5035223;28;20029;-75
2022/03/21 11:08:43;;;;;;;34.08;18.55;;;16.40;94.30;;;;;;5035365;28;20496;-73
2022/03/21 11:11:10;;;;;;;38.00;18.50;;;16.20;94.50;;;;;;5043529;28;20056;-82
2022/03/21 11:13:39;;;;;;;31.20;17.10;;;16.60;94.30;;;;;;5055286;28;20385;-77
2022/03/21 11:16:06;;;;;;;34.00;18.52;;;17.10;94.30;;;;;;5055240;28;20120;-72
2022/03/21 11:18:32;;;;;;;31.38;19.02;;;17.40;93.70;;;;;;5055205;28;20033;-82
2022/03/21 11:20:59;;;;;;;27.85;16.83;;;17.30;93.10;;;;;;5055062;28;20036;-73
2022/03/21 11:23:26;;;;;;;32.78;18.08;;;17.10;93.70;;;;;;5054977;28;20040;-83
2022/03/21 11:26:02;;;;;;;31.10;18.73;;;17.10;93.60;;;;;;5053574;28;20033;-80
2022/03/21 11:28:54;;;;;;;34.90;18.92;;;17.10;93.70;;;;;;5053465;28;20037;-82
2022/03/21 11:31:39;;;;;;;;;;;17.30;93.60;;;;;;5054768;28;20053;-80
2022/03/21 11:34:34;;;;;;;33.92;17.80;;;18.00;92.90;;;;;;5054194;28;19930;-85
2022/03/21 11:37:00;;;;;;;26.00;17.15;;;18.20;93.10;;;;;;5056770;28;20028;-76
2022/03/21 11:39:27;;;;;;;30.65;18.20;;;18.20;92.70;;;;;;5054819;28;20017;-77
2022/03/21 11:41:59;;;;;;;32.75;19.67;;;18.60;92.00;;;;;;5054880;28;20029;-85
2022/03/21 11:44:25;;;;;;;35.75;19.13;;;18.80;91.60;;;;;;5068838;28;20106;-83
2022/03/21 11:46:51;;;;;;;27.83;18.08;;;19.20;91.50;;;;;;5034633;28;20506;-83
2022/03/21 11:49:20;;;;;;;32.10;19.08;;;19.50;91.60;;;;;;5034577;28;20080;-83
2022/03/21 11:51:59;;;;;;;32.08;17.40;;;19.20;91.80;;;;;;5034583;28;20064;-84
2022/03/21 11:54:32;;;;;;;32.60;17.77;;;19.60;91.10;;;;;;5034108;28;20037;-83
2022/03/21 11:57:08;;;;;;;33.10;20.08;;;20.10;91.40;;;;;;5034226;28;20033;-81
2022/03/21 11:59:34;;;;;;;30.02;17.48;;;20.50;90.40;;;;;;5034168;28;20033;-81
2022/03/21 12:02:01;;;;;;;32.83;17.52;;;20.90;90.30;;;;;;5038458;28;20013;-81
2022/03/21 12:04:28;;;;;;;28.20;17.73;;;20.90;90.10;;;;;;5054180;28;20025;-81
2022/03/21 12:07:12;;;;;;;32.85;19.92;;;20.90;90.20;;;;;;5054131;28;20182;-81
2022/03/21 12:09:42;;;;;;;30.13;19.60;;;21.30;88.60;;;;;;5053772;28;20210;-82
2022/03/21 12:12:10;;;;;;;37.55;18.70;;;21.00;88.40;;;;;;5052108;28;20013;-83
2022/03/21 12:15:05;;;;;;;25.23;18.67;;;21.30;88.60;;;;;;5054090;28;20025;-84
2022/03/21 12:17:32;;;;;;;25.67;18.58;;;21.20;88.10;;;;;;5053868;28;20074;-83
2022/03/21 12:20:01;;;;;;;25.55;17.75;;;21.80;87.30;;;;;;5053931;28;20036;-82
2022/03/21 12:22:28;;;;;;;36.15;18.92;;;22.80;87.30;;;;;;5053859;28;20033;-84
2022/03/21 12:24:58;;;;;;;26.50;17.92;;;23.40;86.00;;;;;;5053393;28;20029;-83
2022/03/21 12:27:42;;;;;;;29.13;17.95;;;22.90;86.40;;;;;;5053834;28;20473;-84
2022/03/21 12:30:31;;;;;;;39.42;18.33;;;23.30;84.20;;;;;;5053736;28;20045;-83
2022/03/21 12:33:14;;;;;;;33.17;18.10;;;23.00;85.50;;;;;;5053854;28;20029;-84
2022/03/21 12:35:44;;;;;;;25.10;17.98;;;23.00;83.70;;;;;;5054572;28;20526;-84
2022/03/21 12:38:14;;;;;;;28.20;18.10;;;23.90;83.00;;;;;;5053726;28;20029;-83
2022/03/21 12:40:50;;;;;;;26.98;18.20;;;23.30;83.20;;;;;;5053737;28;20032;-83
2022/03/21 12:43:18;;;;;;;30.65;18.55;;;22.10;84.70;;;;;;5053668;28;20112;-83
2022/03/21 12:45:45;;;;;;;28.38;19.20;;;22.50;84.80;;;;;;5053729;28;20090;-83
2022/03/21 12:48:17;;;;;;;34.45;19.45;;;21.20;85.50;;;;;;5053431;28;20021;-79
2022/03/21 12:50:47;;;;;;;33.05;19.25;;;22.40;85.40;;;;;;5052198;28;20069;-81
2022/03/21 12:53:19;;;;;;;31.73;19.02;;;22.50;84.40;;;;;;5053169;28;20032;-83
2022/03/21 12:56:00;;;;;;;29.83;19.13;;;22.80;84.20;;;;;;5053868;28;20037;-85
2022/03/21 12:58:26;;;;;;;29.13;19.48;;;23.40;82.60;;;;;;5053439;28;20029;-83
2022/03/21 13:00:54;;;;;;;31.80;19.20;;;22.70;85.10;;;;;;5052974;28;20358;-78
2022/03/21 13:03:23;;;;;;;25.95;17.92;;;22.30;84.50;;;;;;5037758;28;20037;-84
2022/03/21 13:11:39;;;;;;;30.63;18.88;;;22.00;85.30;;;;;;5033526;28;20107;-83